sensor_id;sensor_type;location;lat;lon;timestamp;pressure;altitude;pressure_sealevel;temperature;humidity
46756;BME280;32506;52.826;-1.192;2023-06-10T00:01:59;101018.75;;;15.11;45.43
46756;BME280;32506;52.826;-1.192;2023-06-10T00:04:25;101009.25;;;15.08;45.52
46756;BME280;32506;52.826;-1.192;2023-06-10T00:06:51;101012.75;;;15.09;45.65
46756;BME280;32506;52.826;-1.192;2023-06-10T00:09:17;101015.91;;;15.06;45.68
46756;BME280;32506;52.826;-1.192;2023-06-10T00:11:44;101016.16;;;15.04;45.92
46756;BME280;32506;52.826;-1.192;2023-06-10T00:14:09;101017.44;;;15.02;46.08
46756;BME280;32506;52.826;-1.192;2023-06-10T00:16:35;101008.75;;;15.00;46.29
46756;BME280;32506;52.826;-1.192;2023-06-10T00:19:03;101015.44;;;14.97;46.67
46756;BME280;32506;52.826;-1.192;2023-06-10T00:21:30;101015.66;;;14.96;46.50
46756;BME280;32506;52.826;-1.192;2023-06-10T00:24:08;101020.25;;;14.95;46.62
46756;BME280;32506;52.826;-1.192;2023-06-10T00:26:40;101011.00;;;14.91;46.60
46756;BME280;32506;52.826;-1.192;2023-06-10T00:29:06;101012.03;;;14.90;46.38
46756;BME280;32506;52.826;-1.192;2023-06-10T00:31:33;101016.81;;;14.88;46.37
46756;BME280;32506;52.826;-1.192;2023-06-10T00:33:59;101013.31;;;14.87;46.55
46756;BME280;32506;52.826;-1.192;2023-06-10T00:36:24;101013.53;;;14.86;46.49
46756;BME280;32506;52.826;-1.192;2023-06-10T00:38:50;101014.81;;;14.83;46.58
46756;BME280;32506;52.826;-1.192;2023-06-10T00:41:15;101007.78;;;14.82;46.73
46756;BME280;32506;52.826;-1.192;2023-06-10T00:43:40;101006.38;;;14.80;46.75
46756;BME280;32506;52.826;-1.192;2023-06-10T00:46:06;101003.94;;;14.78;46.75
46756;BME280;32506;52.826;-1.192;2023-06-10T00:48:32;101004.16;;;14.76;46.83
46756;BME280;32506;52.826;-1.192;2023-06-10T00:50:58;101004.41;;;14.75;46.83
46756;BME280;32506;52.826;-1.192;2023-06-10T00:53:25;101001.09;;;14.73;46.77
46756;BME280;32506;52.826;-1.192;2023-06-10T00:55:51;100999.47;;;14.72;46.65
46756;BME280;32506;52.826;-1.192;2023-06-10T00:58:16;100995.16;;;14.71;46.68
46756;BME280;32506;52.826;-1.192;2023-06-10T01:00:42;100994.53;;;14.69;46.89
46756;BME280;32506;52.826;-1.192;2023-06-10T01:03:07;100994.53;;;14.69;46.85
46756;BME280;32506;52.826;-1.192;2023-06-10T01:05:36;100992.31;;;14.66;47.14
46756;BME280;32506;52.826;-1.192;2023-06-10T01:08:19;100994.19;;;14.65;47.33
46756;BME280;32506;52.826;-1.192;2023-06-10T01:10:57;100990.06;;;14.63;47.35
46756;BME280;32506;52.826;-1.192;2023-06-10T01:13:25;100998.38;;;14.61;47.23
46756;BME280;32506;52.826;-1.192;2023-06-10T01:15:54;100993.19;;;14.59;47.33
46756;BME280;32506;52.826;-1.192;2023-06-10T01:18:20;100979.19;;;14.57;47.39
46756;BME280;32506;52.826;-1.192;2023-06-10T01:20:47;100983.72;;;14.57;47.59
46756;BME280;32506;52.826;-1.192;2023-06-10T01:23:15;100988.53;;;14.55;47.72
46756;BME280;32506;52.826;-1.192;2023-06-10T01:25:55;100984.19;;;14.54;48.08
46756;BME280;32506;52.826;-1.192;2023-06-10T01:28:45;100986.06;;;14.53;47.98
46756;BME280;32506;52.826;-1.192;2023-06-10T01:31:23;100984.66;;;14.51;47.96
46756;BME280;32506;52.826;-1.192;2023-06-10T01:34:00;100973.28;;;14.49;48.13
46756;BME280;32506;52.826;-1.192;2023-06-10T01:36:26;100970.03;;;14.47;48.09
46756;BME280;32506;52.826;-1.192;2023-06-10T01:38:53;100983.72;;;14.45;47.94
46756;BME280;32506;52.826;-1.192;2023-06-10T01:41:19;100981.03;;;14.45;48.16
46756;BME280;32506;52.826;-1.192;2023-06-10T01:43:47;100981.22;;;14.43;48.56
46756;BME280;32506;52.826;-1.192;2023-06-10T01:46:13;100978.75;;;14.42;48.07
46756;BME280;32506;52.826;-1.192;2023-06-10T01:48:39;100979.84;;;14.41;48.16
46756;BME280;32506;52.826;-1.192;2023-06-10T01:51:05;100980.03;;;14.39;48.29
46756;BME280;32506;52.826;-1.192;2023-06-10T01:53:30;100970.34;;;14.38;48.30
46756;BME280;32506;52.826;-1.192;2023-06-10T01:55:56;100973.28;;;14.37;48.27
46756;BME280;32506;52.826;-1.192;2023-06-10T01:58:21;100974.31;;;14.36;48.25
46756;BME280;32506;52.826;-1.192;2023-06-10T02:00:47;100974.56;;;14.34;48.24
46756;BME280;32506;52.826;-1.192;2023-06-10T02:03:12;100971.88;;;14.34;48.45
46756;BME280;32506;52.826;-1.192;2023-06-10T02:05:38;100963.19;;;14.32;48.29
46756;BME280;32506;52.826;-1.192;2023-06-10T02:08:04;100965.31;;;14.30;48.14
46756;BME280;32506;52.826;-1.192;2023-06-10T02:10:30;100970.69;;;14.30;48.37
46756;BME280;32506;52.826;-1.192;2023-06-10T02:12:55;100960.97;;;14.29;48.56
46756;BME280;32506;52.826;-1.192;2023-06-10T02:15:20;100961.19;;;14.27;48.41
46756;BME280;32506;52.826;-1.192;2023-06-10T02:17:46;100958.50;;;14.27;48.57
46756;BME280;32506;52.826;-1.192;2023-06-10T02:20:11;100955.22;;;14.25;48.62
46756;BME280;32506;52.826;-1.192;2023-06-10T02:22:38;100958.13;;;14.24;49.07
46756;BME280;32506;52.826;-1.192;2023-06-10T02:25:05;100959.19;;;14.23;49.08
46756;BME280;32506;52.826;-1.192;2023-06-10T02:27:30;100965.59;;;14.22;49.33
46756;BME280;32506;52.826;-1.192;2023-06-10T02:29:57;100955.06;;;14.20;49.00
46756;BME280;32506;52.826;-1.192;2023-06-10T02:32:22;100948.06;;;14.19;49.21
46756;BME280;32506;52.826;-1.192;2023-06-10T02:34:48;100946.44;;;14.18;49.49
46756;BME280;32506;52.826;-1.192;2023-06-10T02:37:17;100947.47;;;14.17;49.14
46756;BME280;32506;52.826;-1.192;2023-06-10T02:39:42;100945.03;;;14.16;49.51
46756;BME280;32506;52.826;-1.192;2023-06-10T02:42:08;100947.94;;;14.14;49.40
46756;BME280;32506;52.826;-1.192;2023-06-10T02:44:33;100942.56;;;14.14;49.40
46756;BME280;32506;52.826;-1.192;2023-06-10T02:46:59;100938.22;;;14.13;49.36
46756;BME280;32506;52.826;-1.192;2023-06-10T02:49:25;100934.94;;;14.11;49.33
46756;BME280;32506;52.826;-1.192;2023-06-10T02:51:53;100945.69;;;14.11;49.19
46756;BME280;32506;52.826;-1.192;2023-06-10T02:54:22;100938.69;;;14.10;49.33
46756;BME280;32506;52.826;-1.192;2023-06-10T02:56:48;100942.41;;;14.09;49.28
46756;BME280;32506;52.826;-1.192;2023-06-10T02:59:14;100943.69;;;14.06;49.33
46756;BME280;32506;52.826;-1.192;2023-06-10T03:01:40;100949.06;;;14.06;49.17
46756;BME280;32506;52.826;-1.192;2023-06-10T03:04:06;100942.03;;;14.05;49.50
46756;BME280;32506;52.826;-1.192;2023-06-10T03:06:31;100941.25;;;14.05;49.33
46756;BME280;32506;52.826;-1.192;2023-06-10T03:09:01;100933.41;;;14.03;49.45
46756;BME280;32506;52.826;-1.192;2023-06-10T03:11:26;100931.53;;;14.04;49.48
46756;BME280;32506;52.826;-1.192;2023-06-10T03:13:52;100943.31;;;14.03;49.56
46756;BME280;32506;52.826;-1.192;2023-06-10T03:16:19;100934.69;;;14.01;49.60
46756;BME280;32506;52.826;-1.192;2023-06-10T03:18:44;100932.00;;;14.01;49.77
46756;BME280;32506;52.826;-1.192;2023-06-10T03:21:10;100931.38;;;13.99;49.63
46756;BME280;32506;52.826;-1.192;2023-06-10T03:23:39;100932.19;;;13.99;49.64
46756;BME280;32506;52.826;-1.192;2023-06-10T03:26:04;100936.75;;;13.99;49.70
46756;BME280;32506;52.826;-1.192;2023-06-10T03:28:33;100933.50;;;13.97;49.74
46756;BME280;32506;52.826;-1.192;2023-06-10T03:30:58;100933.50;;;13.97;49.85
46756;BME280;32506;52.826;-1.192;2023-06-10T03:33:24;100937.22;;;13.96;49.78
46756;BME280;32506;52.826;-1.192;2023-06-10T03:35:50;100932.88;;;13.95;49.87
46756;BME280;32506;52.826;-1.192;2023-06-10T03:38:15;100936.38;;;13.95;49.85
46756;BME280;32506;52.826;-1.192;2023-06-10T03:40:41;100942.81;;;13.94;49.97
46756;BME280;32506;52.826;-1.192;2023-06-10T03:43:07;100935.56;;;13.95;49.85
46756;BME280;32506;52.826;-1.192;2023-06-10T03:45:32;100933.13;;;13.93;49.86
46756;BME280;32506;52.826;-1.192;2023-06-10T03:47:58;100934.16;;;13.92;49.77
46756;BME280;32506;52.826;-1.192;2023-06-10T03:50:23;100939.53;;;13.92;50.16
46756;BME280;32506;52.826;-1.192;2023-06-10T03:52:50;100936.03;;;13.91;50.02
46756;BME280;32506;52.826;-1.192;2023-06-10T03:55:16;100934.38;;;13.90;49.95
46756;BME280;32506;52.826;-1.192;2023-06-10T03:57:42;100930.88;;;13.90;49.88
46756;BME280;32506;52.826;-1.192;2023-06-10T04:00:08;100929.81;;;13.91;50.08
46756;BME280;32506;52.826;-1.192;2023-06-10T04:02:38;100922.84;;;13.90;50.15
46756;BME280;32506;52.826;-1.192;2023-06-10T04:05:15;100923.88;;;13.89;50.43
46756;BME280;32506;52.826;-1.192;2023-06-10T04:07:42;100924.69;;;13.89;50.11
46756;BME280;32506;52.826;-1.192;2023-06-10T04:10:08;100925.72;;;13.88;50.37
46756;BME280;32506;52.826;-1.192;2023-06-10T04:12:34;100926.56;;;13.89;50.57
46756;BME280;32506;52.826;-1.192;2023-06-10T04:15:00;100921.19;;;13.89;50.55
46756;BME280;32506;52.826;-1.192;2023-06-10T04:17:26;100919.53;;;13.88;50.62
46756;BME280;32506;52.826;-1.192;2023-06-10T04:19:51;100931.94;;;13.89;50.50
46756;BME280;32506;52.826;-1.192;2023-06-10T04:22:17;100919.31;;;13.89;50.75
46756;BME280;32506;52.826;-1.192;2023-06-10T04:24:43;100918.50;;;13.89;50.67
46756;BME280;32506;52.826;-1.192;2023-06-10T04:27:08;100912.28;;;13.88;50.79
46756;BME280;32506;52.826;-1.192;2023-06-10T04:29:34;100917.47;;;13.90;50.69
46756;BME280;32506;52.826;-1.192;2023-06-10T04:31:59;100913.13;;;13.89;50.61
46756;BME280;32506;52.826;-1.192;2023-06-10T04:34:26;100915.56;;;13.90;51.09
46756;BME280;32506;52.826;-1.192;2023-06-10T04:36:52;100922.84;;;13.90;50.99
46756;BME280;32506;52.826;-1.192;2023-06-10T04:39:18;100922.00;;;13.89;50.83
46756;BME280;32506;52.826;-1.192;2023-06-10T04:41:43;100925.53;;;13.90;50.99
46756;BME280;32506;52.826;-1.192;2023-06-10T04:44:09;100917.47;;;13.90;51.00
46756;BME280;32506;52.826;-1.192;2023-06-10T04:46:36;100913.94;;;13.89;51.08
46756;BME280;32506;52.826;-1.192;2023-06-10T04:49:01;100916.38;;;13.91;51.10
46756;BME280;32506;52.826;-1.192;2023-06-10T04:51:27;100913.69;;;13.91;50.97
46756;BME280;32506;52.826;-1.192;2023-06-10T04:53:53;100908.31;;;13.91;51.30
46756;BME280;32506;52.826;-1.192;2023-06-10T04:56:19;100909.97;;;13.92;51.21
46756;BME280;32506;52.826;-1.192;2023-06-10T04:58:44;100913.47;;;13.92;51.33
46756;BME280;32506;52.826;-1.192;2023-06-10T05:01:09;100904.59;;;13.92;51.13
46756;BME280;32506;52.826;-1.192;2023-06-10T05:03:35;100906.25;;;13.93;51.16
46756;BME280;32506;52.826;-1.192;2023-06-10T05:06:00;100899.84;;;13.94;51.13
46756;BME280;32506;52.826;-1.192;2023-06-10T05:08:26;100904.97;;;13.96;51.01
46756;BME280;32506;52.826;-1.192;2023-06-10T05:10:51;100906.63;;;13.97;50.86
46756;BME280;32506;52.826;-1.192;2023-06-10T05:13:16;100906.63;;;13.97;50.96
46756;BME280;32506;52.826;-1.192;2023-06-10T05:15:43;100900.19;;;13.98;50.89
46756;BME280;32506;52.826;-1.192;2023-06-10T05:18:10;100900.78;;;14.00;50.61
46756;BME280;32506;52.826;-1.192;2023-06-10T05:20:37;100904.28;;;14.00;50.57
46756;BME280;32506;52.826;-1.192;2023-06-10T05:23:02;100896.22;;;14.00;50.54
46756;BME280;32506;52.826;-1.192;2023-06-10T05:25:30;100895.19;;;14.01;50.62
46756;BME280;32506;52.826;-1.192;2023-06-10T05:27:56;100899.50;;;14.02;50.58
46756;BME280;32506;52.826;-1.192;2023-06-10T05:30:21;100899.03;;;14.05;50.71
46756;BME280;32506;52.826;-1.192;2023-06-10T05:32:47;100907.91;;;14.06;50.39
46756;BME280;32506;52.826;-1.192;2023-06-10T05:35:13;100909.56;;;14.07;50.61
46756;BME280;32506;52.826;-1.192;2023-06-10T05:37:38;100910.16;;;14.09;50.46
46756;BME280;32506;52.826;-1.192;2023-06-10T05:40:04;100911.81;;;14.10;50.65
46756;BME280;32506;52.826;-1.192;2023-06-10T05:42:29;100916.97;;;14.12;50.23
46756;BME280;32506;52.826;-1.192;2023-06-10T05:44:55;100924.56;;;14.15;50.25
46756;BME280;32506;52.826;-1.192;2023-06-10T05:47:20;100929.47;;;14.18;50.23
46756;BME280;32506;52.826;-1.192;2023-06-10T05:49:46;100922.25;;;14.18;50.11
46756;BME280;32506;52.826;-1.192;2023-06-10T05:52:13;100928.19;;;14.20;50.10
46756;BME280;32506;52.826;-1.192;2023-06-10T05:54:38;100926.13;;;14.22;49.92
46756;BME280;32506;52.826;-1.192;2023-06-10T05:57:04;100924.00;;;14.24;49.88
46756;BME280;32506;52.826;-1.192;2023-06-10T05:59:31;100921.91;;;14.26;50.06
46756;BME280;32506;52.826;-1.192;2023-06-10T06:01:57;100917.13;;;14.29;49.82
46756;BME280;32506;52.826;-1.192;2023-06-10T06:04:22;100922.06;;;14.32;49.98
46756;BME280;32506;52.826;-1.192;2023-06-10T06:06:47;100917.00;;;14.35;49.90
46756;BME280;32506;52.826;-1.192;2023-06-10T06:09:13;100916.56;;;14.38;50.04
46756;BME280;32506;52.826;-1.192;2023-06-10T06:11:38;100915.31;;;14.41;50.27
46756;BME280;32506;52.826;-1.192;2023-06-10T06:14:04;100914.00;;;14.43;50.08
46756;BME280;32506;52.826;-1.192;2023-06-10T06:16:29;100922.44;;;14.47;50.12
46756;BME280;32506;52.826;-1.192;2023-06-10T06:18:55;100915.78;;;14.50;50.44
46756;BME280;32506;52.826;-1.192;2023-06-10T06:21:20;100919.06;;;14.52;50.28
46756;BME280;32506;52.826;-1.192;2023-06-10T06:23:45;100929.94;;;14.57;50.59
46756;BME280;32506;52.826;-1.192;2023-06-10T06:26:11;100922.22;;;14.60;50.34
46756;BME280;32506;52.826;-1.192;2023-06-10T06:28:36;100921.78;;;14.64;50.41
46756;BME280;32506;52.826;-1.192;2023-06-10T06:31:02;100922.75;;;14.69;50.50
46756;BME280;32506;52.826;-1.192;2023-06-10T06:33:27;100920.41;;;14.73;50.67
46756;BME280;32506;52.826;-1.192;2023-06-10T06:35:53;100910.81;;;14.77;50.49
46756;BME280;32506;52.826;-1.192;2023-06-10T06:38:18;100909.31;;;14.81;50.73
46756;BME280;32506;52.826;-1.192;2023-06-10T06:40:44;100909.41;;;14.86;50.71
46756;BME280;32506;52.826;-1.192;2023-06-10T06:43:09;100913.06;;;14.92;51.01
46756;BME280;32506;52.826;-1.192;2023-06-10T06:45:34;100919.63;;;14.96;51.12
46756;BME280;32506;52.826;-1.192;2023-06-10T06:48:00;100909.78;;;15.02;51.23
46756;BME280;32506;52.826;-1.192;2023-06-10T06:50:25;100911.75;;;15.06;51.23
46756;BME280;32506;52.826;-1.192;2023-06-10T06:52:51;100909.53;;;15.15;51.42
46756;BME280;32506;52.826;-1.192;2023-06-10T06:55:16;100909.66;;;15.20;51.46
46756;BME280;32506;52.826;-1.192;2023-06-10T06:57:42;100905.19;;;15.26;51.65
46756;BME280;32506;52.826;-1.192;2023-06-10T07:00:08;100896.19;;;15.32;51.48
46756;BME280;32506;52.826;-1.192;2023-06-10T07:02:35;100911.97;;;15.40;51.85
46756;BME280;32506;52.826;-1.192;2023-06-10T07:05:01;100903.75;;;15.47;51.65
46756;BME280;32506;52.826;-1.192;2023-06-10T07:07:27;100911.72;;;15.54;51.75
46756;BME280;32506;52.826;-1.192;2023-06-10T07:09:52;100916.97;;;15.60;51.79
46756;BME280;32506;52.826;-1.192;2023-06-10T07:12:18;100923.28;;;15.66;51.85
46756;BME280;32506;52.826;-1.192;2023-06-10T07:14:44;100918.81;;;15.72;51.77
46756;BME280;32506;52.826;-1.192;2023-06-10T07:17:09;100921.59;;;15.77;51.75
46756;BME280;32506;52.826;-1.192;2023-06-10T07:19:35;100923.13;;;15.85;51.66
46756;BME280;32506;52.826;-1.192;2023-06-10T07:22:00;100919.72;;;15.89;51.67
46756;BME280;32506;52.826;-1.192;2023-06-10T07:24:26;100925.22;;;15.94;51.58
46756;BME280;32506;52.826;-1.192;2023-06-10T07:26:51;100921.78;;;15.99;51.50
46756;BME280;32506;52.826;-1.192;2023-06-10T07:29:16;100926.22;;;16.05;51.50
46756;BME280;32506;52.826;-1.192;2023-06-10T07:31:42;100920.34;;;16.08;51.46
46756;BME280;32506;52.826;-1.192;2023-06-10T07:34:07;100915.88;;;16.14;51.21
46756;BME280;32506;52.826;-1.192;2023-06-10T07:36:33;100906.25;;;16.18;51.36
46756;BME280;32506;52.826;-1.192;2023-06-10T07:38:58;100906.91;;;16.25;51.16
46756;BME280;32506;52.826;-1.192;2023-06-10T07:41:24;100905.34;;;16.30;51.35
46756;BME280;32506;52.826;-1.192;2023-06-10T07:43:53;100902.25;;;16.38;51.45
46756;BME280;32506;52.826;-1.192;2023-06-10T07:46:23;100896.44;;;16.46;51.53
46756;BME280;32506;52.826;-1.192;2023-06-10T07:48:49;100898.75;;;16.54;52.24
46756;BME280;32506;52.826;-1.192;2023-06-10T07:51:15;100907.25;;;16.63;52.18
46756;BME280;32506;52.826;-1.192;2023-06-10T07:53:41;100907.44;;;16.73;52.47
46756;BME280;32506;52.826;-1.192;2023-06-10T07:56:06;100896.50;;;16.85;52.62
46756;BME280;32506;52.826;-1.192;2023-06-10T07:58:32;100897.28;;;16.98;52.61
46756;BME280;32506;52.826;-1.192;2023-06-10T08:00:57;100893.66;;;17.09;52.77
46756;BME280;32506;52.826;-1.192;2023-06-10T08:03:23;100892.50;;;17.22;52.92
46756;BME280;32506;52.826;-1.192;2023-06-10T08:05:48;100903.19;;;17.34;53.20
46756;BME280;32506;52.826;-1.192;2023-06-10T08:08:14;100884.72;;;17.48;52.91
46756;BME280;32506;52.826;-1.192;2023-06-10T08:10:39;100887.03;;;17.61;53.32
46756;BME280;32506;52.826;-1.192;2023-06-10T08:13:04;100897.22;;;17.76;53.13
46756;BME280;32506;52.826;-1.192;2023-06-10T08:15:30;100902.22;;;17.89;53.03
46756;BME280;32506;52.826;-1.192;2023-06-10T08:17:55;100891.03;;;18.03;53.22
46756;BME280;32506;52.826;-1.192;2023-06-10T08:20:22;100889.28;;;18.19;52.89
46756;BME280;32506;52.826;-1.192;2023-06-10T08:22:47;100894.81;;;18.34;53.03
46756;BME280;32506;52.826;-1.192;2023-06-10T08:25:13;100902.28;;;18.49;53.21
46756;BME280;32506;52.826;-1.192;2023-06-10T08:27:38;100901.59;;;18.64;53.03
46756;BME280;32506;52.826;-1.192;2023-06-10T08:30:04;100892.50;;;18.81;53.12
46756;BME280;32506;52.826;-1.192;2023-06-10T08:32:30;100902.38;;;18.97;52.96
46756;BME280;32506;52.826;-1.192;2023-06-10T08:34:55;100894.09;;;19.14;53.05
46756;BME280;32506;52.826;-1.192;2023-06-10T08:37:20;100893.66;;;19.33;52.86
46756;BME280;32506;52.826;-1.192;2023-06-10T08:39:47;100891.81;;;19.49;52.57
46756;BME280;32506;52.826;-1.192;2023-06-10T08:42:24;100893.78;;;19.69;52.31
46756;BME280;32506;52.826;-1.192;2023-06-10T08:44:54;100898.19;;;19.85;52.46
46756;BME280;32506;52.826;-1.192;2023-06-10T08:47:23;100886.84;;;20.04;52.40
46756;BME280;32506;52.826;-1.192;2023-06-10T08:49:50;100891.50;;;20.24;52.28
46756;BME280;32506;52.826;-1.192;2023-06-10T08:52:17;100887.13;;;20.43;52.17
46756;BME280;32506;52.826;-1.192;2023-06-10T08:54:54;100891.22;;;20.61;51.94
46756;BME280;32506;52.826;-1.192;2023-06-10T08:57:21;100877.63;;;20.82;51.98
46756;BME280;32506;52.826;-1.192;2023-06-10T08:59:48;100890.63;;;21.01;51.62
46756;BME280;32506;52.826;-1.192;2023-06-10T09:02:14;100887.84;;;21.21;51.54
46756;BME280;32506;52.826;-1.192;2023-06-10T09:04:42;100878.81;;;21.41;51.43
46756;BME280;32506;52.826;-1.192;2023-06-10T09:07:08;100881.75;;;21.60;51.28
46756;BME280;32506;52.826;-1.192;2023-06-10T09:09:34;100883.25;;;21.82;51.18
46756;BME280;32506;52.826;-1.192;2023-06-10T09:12:00;100876.06;;;22.02;50.87
46756;BME280;32506;52.826;-1.192;2023-06-10T09:14:26;100877.53;;;22.23;50.75
46756;BME280;32506;52.826;-1.192;2023-06-10T09:16:52;100870.34;;;22.43;50.35
46756;BME280;32506;52.826;-1.192;2023-06-10T09:19:22;100879.94;;;22.65;50.13
46756;BME280;32506;52.826;-1.192;2023-06-10T09:21:48;100875.13;;;22.86;50.09
46756;BME280;32506;52.826;-1.192;2023-06-10T09:24:13;100881.13;;;23.07;49.60
46756;BME280;32506;52.826;-1.192;2023-06-10T09:26:39;100877.41;;;23.27;49.63
46756;BME280;32506;52.826;-1.192;2023-06-10T09:29:06;100872.50;;;23.48;49.31
46756;BME280;32506;52.826;-1.192;2023-06-10T09:31:39;100867.59;;;23.69;49.56
46756;BME280;32506;52.826;-1.192;2023-06-10T09:34:07;100874.41;;;23.91;48.96
46756;BME280;32506;52.826;-1.192;2023-06-10T09:36:34;100883.09;;;24.12;48.72
46756;BME280;32506;52.826;-1.192;2023-06-10T09:39:01;100876.50;;;24.32;48.78
46756;BME280;32506;52.826;-1.192;2023-06-10T09:41:39;100874.44;;;24.57;48.61
46756;BME280;32506;52.826;-1.192;2023-06-10T09:44:20;100879.28;;;24.79;48.25
46756;BME280;32506;52.826;-1.192;2023-06-10T09:46:49;100879.66;;;25.00;48.27
46756;BME280;32506;52.826;-1.192;2023-06-10T09:49:16;100876.25;;;25.22;47.78
46756;BME280;32506;52.826;-1.192;2023-06-10T09:51:52;100867.31;;;25.44;47.57
46756;BME280;32506;52.826;-1.192;2023-06-10T09:54:18;100869.91;;;25.63;47.35
46756;BME280;32506;52.826;-1.192;2023-06-10T09:56:47;100877.34;;;25.86;47.29
46756;BME280;32506;52.826;-1.192;2023-06-10T09:59:13;100876.91;;;26.06;46.88
46756;BME280;32506;52.826;-1.192;2023-06-10T10:01:38;100872.84;;;26.26;46.68
46756;BME280;32506;52.826;-1.192;2023-06-10T10:04:04;100869.63;;;26.47;46.38
46756;BME280;32506;52.826;-1.192;2023-06-10T10:06:30;100872.44;;;26.65;45.91
46756;BME280;32506;52.826;-1.192;2023-06-10T10:08:55;100880.94;;;26.86;45.99
46756;BME280;32506;52.826;-1.192;2023-06-10T10:11:22;100878.78;;;27.05;45.59
46756;BME280;32506;52.826;-1.192;2023-06-10T10:13:49;100873.00;;;27.24;45.42
46756;BME280;32506;52.826;-1.192;2023-06-10T10:16:17;100870.00;;;27.43;45.09
46756;BME280;32506;52.826;-1.192;2023-06-10T10:18:46;100875.22;;;27.62;45.08
46756;BME280;32506;52.826;-1.192;2023-06-10T10:21:15;100864.91;;;27.86;44.95
46756;BME280;32506;52.826;-1.192;2023-06-10T10:23:56;100864.72;;;28.00;44.40
46756;BME280;32506;52.826;-1.192;2023-06-10T10:26:25;100860.84;;;28.18;44.38
46756;BME280;32506;52.826;-1.192;2023-06-10T10:29:01;100861.44;;;28.41;44.06
46756;BME280;32506;52.826;-1.192;2023-06-10T10:31:32;100863.34;;;28.58;44.36
46756;BME280;32506;52.826;-1.192;2023-06-10T10:34:04;100866.53;;;28.78;43.96
46756;BME280;32506;52.826;-1.192;2023-06-10T10:36:30;100859.81;;;28.96;43.69
46756;BME280;32506;52.826;-1.192;2023-06-10T10:39:00;100853.41;;;29.13;43.24
46756;BME280;32506;52.826;-1.192;2023-06-10T10:41:30;100860.47;;;29.32;43.28
46756;BME280;32506;52.826;-1.192;2023-06-10T10:43:59;100861.63;;;29.52;43.06
46756;BME280;32506;52.826;-1.192;2023-06-10T10:46:29;100863.09;;;29.71;43.03
46756;BME280;32506;52.826;-1.192;2023-06-10T10:48:56;100857.81;;;29.87;42.51
46756;BME280;32506;52.826;-1.192;2023-06-10T10:51:23;100860.06;;;30.06;42.28
46756;BME280;32506;52.826;-1.192;2023-06-10T10:54:09;100856.44;;;30.26;42.10
46756;BME280;32506;52.826;-1.192;2023-06-10T10:56:38;100864.75;;;30.39;41.89
46756;BME280;32506;52.826;-1.192;2023-06-10T10:59:04;100857.78;;;30.54;41.63
46756;BME280;32506;52.826;-1.192;2023-06-10T11:01:43;100861.59;;;30.74;41.22
46756;BME280;32506;52.826;-1.192;2023-06-10T11:04:15;100858.88;;;30.86;41.24
46756;BME280;32506;52.826;-1.192;2023-06-10T11:06:52;100857.50;;;31.05;41.34
46756;BME280;32506;52.826;-1.192;2023-06-10T11:09:26;100848.53;;;31.20;40.97
46756;BME280;32506;52.826;-1.192;2023-06-10T11:11:56;100845.38;;;31.34;41.21
46756;BME280;32506;52.826;-1.192;2023-06-10T11:14:27;100848.22;;;31.50;40.92
46756;BME280;32506;52.826;-1.192;2023-06-10T11:16:59;100849.47;;;31.65;40.22
46756;BME280;32506;52.826;-1.192;2023-06-10T11:19:36;100843.66;;;31.83;40.56
46756;BME280;32506;52.826;-1.192;2023-06-10T11:22:05;100832.91;;;31.93;40.51
46756;BME280;32506;52.826;-1.192;2023-06-10T11:24:37;100830.19;;;32.09;40.17
46756;BME280;32506;52.826;-1.192;2023-06-10T11:27:19;100828.38;;;32.29;39.73
46756;BME280;32506;52.826;-1.192;2023-06-10T11:29:58;100828.72;;;32.44;39.92
46756;BME280;32506;52.826;-1.192;2023-06-10T11:32:29;100820.34;;;32.56;39.43
46756;BME280;32506;52.826;-1.192;2023-06-10T11:34:56;100819.91;;;32.70;39.45
46756;BME280;32506;52.826;-1.192;2023-06-10T11:37:22;100819.81;;;32.83;39.29
46756;BME280;32506;52.826;-1.192;2023-06-10T11:39:51;100814.63;;;32.97;39.18
46756;BME280;32506;52.826;-1.192;2023-06-10T11:42:18;100814.94;;;33.11;39.29
46756;BME280;32506;52.826;-1.192;2023-06-10T11:44:50;100812.50;;;33.26;39.25
46756;BME280;32506;52.826;-1.192;2023-06-10T11:47:17;100811.22;;;33.39;38.88
46756;BME280;32506;52.826;-1.192;2023-06-10T11:49:42;100797.66;;;33.54;38.62
46756;BME280;32506;52.826;-1.192;2023-06-10T11:52:08;100803.50;;;33.68;38.35
46756;BME280;32506;52.826;-1.192;2023-06-10T11:54:34;100801.38;;;33.81;38.27
46756;BME280;32506;52.826;-1.192;2023-06-10T11:56:59;100790.94;;;33.94;38.62
46756;BME280;32506;52.826;-1.192;2023-06-10T11:59:29;100799.50;;;34.08;38.18
46756;BME280;32506;52.826;-1.192;2023-06-10T12:01:55;100799.72;;;34.19;38.25
46756;BME280;32506;52.826;-1.192;2023-06-10T12:04:21;100794.78;;;34.32;38.00
46756;BME280;32506;52.826;-1.192;2023-06-10T12:06:51;100800.13;;;34.44;38.18
46756;BME280;32506;52.826;-1.192;2023-06-10T12:09:24;100791.63;;;34.57;37.53
46756;BME280;32506;52.826;-1.192;2023-06-10T12:11:53;100791.41;;;34.69;37.51
46756;BME280;32506;52.826;-1.192;2023-06-10T12:14:51;100787.69;;;34.85;37.59
46756;BME280;32506;52.826;-1.192;2023-06-10T12:19:49;100787.19;;;35.06;37.23
46756;BME280;32506;52.826;-1.192;2023-06-10T12:22:15;100792.91;;;35.17;36.70
46756;BME280;32506;52.826;-1.192;2023-06-10T12:25:02;100796.31;;;35.33;36.82
46756;BME280;32506;52.826;-1.192;2023-06-10T12:27:31;100785.31;;;35.40;36.70
46756;BME280;32506;52.826;-1.192;2023-06-10T12:29:58;100777.09;;;35.51;36.54
46756;BME280;32506;52.826;-1.192;2023-06-10T12:32:42;100776.47;;;35.69;36.61
46756;BME280;32506;52.826;-1.192;2023-06-10T12:35:09;100774.94;;;35.75;36.52
46756;BME280;32506;52.826;-1.192;2023-06-10T12:37:35;100773.13;;;35.86;36.15
46756;BME280;32506;52.826;-1.192;2023-06-10T12:40:03;100766.88;;;36.00;36.09
46756;BME280;32506;52.826;-1.192;2023-06-10T12:42:32;100767.78;;;36.11;36.12
46756;BME280;32506;52.826;-1.192;2023-06-10T12:45:00;100759.94;;;36.24;36.02